createdAt,value
2019-02-12T00:05:52.544Z,1011.37
2019-02-12T00:15:51.323Z,1011.31
2019-02-12T00:25:53.288Z,1011.48
2019-02-12T00:35:51.282Z,1011.54
2019-02-12T00:45:51.320Z,1011.72
2019-02-12T00:55:51.306Z,1011.74
2019-02-12T01:05:51.302Z,1011.83
2019-02-12T01:15:52.324Z,1011.91
2019-02-12T01:25:51.279Z,1011.88
2019-02-12T01:35:51.309Z,1012.09
2019-02-12T01:45:51.466Z,1012.18
2019-02-12T01:55:51.287Z,1012.02
2019-02-12T02:05:51.541Z,1011.98
2019-02-12T02:15:51.303Z,1012.01
2019-02-12T02:25:51.272Z,1011.95
2019-02-12T02:35:51.638Z,1011.88
2019-02-12T02:45:51.288Z,1011.84
2019-02-12T02:55:51.402Z,1011.86
2019-02-12T03:05:51.218Z,1011.89
2019-02-12T03:15:51.265Z,1011.91
2019-02-12T03:25:51.259Z,1012.01
2019-02-12T03:35:51.290Z,1012.00
2019-02-12T03:45:51.346Z,1012.10
2019-02-12T03:55:51.267Z,1012.05
2019-02-12T04:05:51.396Z,1012.02
2019-02-12T04:15:51.344Z,1012.00
2019-02-12T04:25:51.183Z,1012.16
2019-02-12T04:35:51.236Z,1012.24
2019-02-12T04:45:51.528Z,1012.22
2019-02-12T04:55:51.233Z,1012.38
2019-02-12T05:05:52.249Z,1012.32
2019-02-12T05:15:51.243Z,1012.34
2019-02-12T05:25:51.321Z,1012.43
2019-02-12T05:35:52.331Z,1012.54
2019-02-12T05:45:51.246Z,1012.64
2019-02-12T05:55:51.269Z,1012.53
2019-02-12T06:05:58.466Z,1012.49
2019-02-12T06:15:51.230Z,1012.50
2019-02-12T06:25:51.217Z,1012.43
2019-02-12T06:35:51.278Z,1012.48
2019-02-12T06:45:51.283Z,1012.60
2019-02-12T06:55:51.341Z,1012.47
2019-02-12T07:05:51.265Z,1012.61
2019-02-12T07:15:51.280Z,1012.77
2019-02-12T07:25:58.868Z,1012.87
2019-02-12T07:45:52.992Z,1013.16
2019-02-12T07:55:52.642Z,1013.47
2019-02-12T08:05:56.385Z,1013.57
2019-02-12T08:15:52.636Z,1013.84
2019-02-12T08:25:52.645Z,1014.00
2019-02-12T08:35:57.283Z,1013.91
2019-02-12T08:45:52.665Z,1013.81
2019-02-12T08:55:52.677Z,1013.96
2019-02-12T09:05:54.099Z,1014.14
2019-02-12T09:15:52.668Z,1014.19
2019-02-12T09:25:52.674Z,1014.25
2019-02-12T09:35:52.608Z,1014.20
2019-02-12T09:45:52.629Z,1014.26
2019-02-12T09:55:56.055Z,1014.28
2019-02-12T10:05:52.642Z,1014.24
2019-02-12T10:15:52.442Z,1014.39
2019-02-12T10:25:52.596Z,1014.49
2019-02-12T10:35:52.426Z,1014.48
2019-02-12T10:45:52.495Z,1014.40
2019-02-12T10:55:52.646Z,1014.43
2019-02-12T11:05:52.485Z,1014.37
2019-02-12T11:15:52.606Z,1014.40
2019-02-12T11:25:52.615Z,1014.56
2019-02-12T11:35:52.521Z,1014.40
2019-02-12T11:45:52.639Z,1014.25
2019-02-12T11:55:52.555Z,1014.25
2019-02-12T12:05:54.443Z,1014.17
2019-02-12T12:15:52.455Z,1014.09
2019-02-12T12:25:52.611Z,1014.03
2019-02-12T12:35:53.516Z,1013.97
2019-02-12T12:45:52.814Z,1014.00
2019-02-12T12:55:53.473Z,1013.88
2019-02-12T13:05:52.535Z,1013.85
2019-02-12T13:15:52.457Z,1013.78
2019-02-12T13:25:52.522Z,1013.78
2019-02-12T13:35:54.124Z,1013.73
2019-02-12T13:45:52.608Z,1013.63
2019-02-12T13:55:53.155Z,1013.80
2019-02-12T14:05:52.447Z,1013.77
2019-02-12T14:15:52.577Z,1013.88
2019-02-12T14:25:52.433Z,1014.02
2019-02-12T14:35:52.546Z,1014.07
2019-02-12T14:45:52.570Z,1014.05
2019-02-12T14:55:52.481Z,1014.11
2019-02-12T15:05:53.226Z,1014.02
2019-02-12T15:15:53.242Z,1013.87
2019-02-12T15:25:52.637Z,1013.94
2019-02-12T15:35:52.601Z,1013.94
2019-02-12T15:45:53.478Z,1013.89
2019-02-12T15:55:52.586Z,1014.03
2019-02-12T16:05:52.486Z,1013.99
2019-02-12T16:15:52.487Z,1014.08
2019-02-12T16:25:59.331Z,1013.98
2019-02-12T16:35:52.552Z,1014.20
2019-02-12T16:45:52.961Z,1014.23
2019-02-12T16:55:52.519Z,1014.06
2019-02-12T17:05:53.323Z,1014.12
2019-02-12T17:15:53.414Z,1014.36
2019-02-12T17:25:52.566Z,1014.50
2019-02-12T17:35:52.502Z,1014.57
2019-02-12T17:45:52.685Z,1014.54
2019-02-12T17:55:52.539Z,1014.60
2019-02-12T18:05:53.634Z,1014.68
2019-02-12T18:15:52.431Z,1014.51
2019-02-12T18:25:52.556Z,1014.55
2019-02-12T18:35:52.548Z,1014.57
2019-02-12T18:45:52.497Z,1014.61
2019-02-12T18:55:52.504Z,1014.51
2019-02-12T19:05:52.640Z,1014.64
2019-02-12T19:15:52.532Z,1014.69
2019-02-12T19:25:52.419Z,1014.68
2019-02-12T19:35:52.499Z,1014.78
2019-02-12T19:45:52.468Z,1014.83
2019-02-12T19:55:52.559Z,1014.94
2019-02-12T20:05:52.363Z,1014.97
2019-02-12T20:15:52.389Z,1014.96
2019-02-12T20:25:52.371Z,1014.94
2019-02-12T20:35:52.661Z,1014.87
2019-02-12T20:45:52.610Z,1014.79
2019-02-12T20:55:52.451Z,1015.08
2019-02-12T21:05:52.337Z,1014.94
2019-02-12T21:15:52.471Z,1014.89
2019-02-12T21:25:52.444Z,1014.98
2019-02-12T21:35:52.435Z,1015.06
2019-02-12T21:45:52.526Z,1014.98
2019-02-12T21:55:52.382Z,1015.06
2019-02-12T22:05:52.327Z,1015.09
2019-02-12T22:15:53.515Z,1015.28
2019-02-12T22:25:52.491Z,1015.35
2019-02-12T22:35:52.341Z,1015.26
2019-02-12T22:45:52.474Z,1015.43
2019-02-12T22:55:52.411Z,1015.50
2019-02-12T23:05:52.357Z,1015.47
2019-02-12T23:15:52.789Z,1015.50
2019-02-12T23:25:52.394Z,1015.46
2019-02-12T23:45:58.491Z,1015.34
2019-02-12T23:55:58.335Z,1015.41
